createdAt,value
2019-04-07T00:02:39.545Z,30.20
2019-04-07T00:05:32.209Z,30.10
2019-04-07T00:08:24.811Z,30.10
2019-04-07T00:11:17.510Z,30.10
2019-04-07T00:14:10.500Z,30.10
2019-04-07T00:17:03.893Z,30.20
2019-04-07T00:19:56.989Z,30.10
2019-04-07T00:22:50.033Z,30.10
2019-04-07T00:25:43.000Z,30.10
2019-04-07T00:28:35.664Z,30.10
2019-04-07T00:31:28.883Z,30.20
2019-04-07T00:34:22.110Z,30.10
2019-04-07T00:37:15.525Z,30.20
2019-04-07T00:40:08.653Z,30.10
2019-04-07T00:43:01.361Z,30.10
2019-04-07T00:45:54.107Z,30.10
2019-04-07T00:48:46.510Z,30.10
2019-04-07T00:51:39.163Z,30.20
2019-04-07T00:54:31.666Z,30.20
2019-04-07T00:57:24.015Z,30.20
2019-04-07T01:00:17.444Z,30.10
2019-04-07T01:03:11.542Z,30.10
2019-04-07T01:06:05.190Z,30.20
2019-04-07T01:08:59.260Z,30.10
2019-04-07T01:11:52.280Z,30.10
2019-04-07T01:14:45.851Z,30.20
2019-04-07T01:17:39.142Z,30.10
2019-04-07T01:20:31.825Z,30.10
2019-04-07T01:23:24.137Z,30.20
2019-04-07T01:26:17.306Z,30.20
2019-04-07T01:29:10.243Z,30.10
2019-04-07T01:32:02.899Z,30.20
2019-04-07T01:34:55.902Z,30.20
2019-04-07T01:37:48.665Z,30.20
2019-04-07T01:40:41.639Z,30.20
2019-04-07T01:43:49.338Z,30.20
2019-04-07T01:46:58.126Z,30.20
2019-04-07T01:49:57.782Z,30.20
2019-04-07T01:53:05.863Z,30.10
2019-04-07T01:56:14.039Z,30.20
2019-04-07T01:59:14.458Z,30.20
2019-04-07T02:02:34.579Z,30.20
2019-04-07T02:05:43.450Z,30.20
2019-04-07T02:08:50.737Z,30.20
2019-04-07T02:12:00.567Z,30.20
2019-04-07T02:15:11.317Z,30.20
2019-04-07T02:18:13.867Z,30.20
2019-04-07T02:21:14.173Z,30.10
2019-04-07T02:24:20.339Z,30.20
2019-04-07T02:27:34.820Z,30.20
2019-04-07T02:30:44.735Z,30.20
2019-04-07T02:33:43.820Z,30.20
2019-04-07T02:36:49.959Z,30.20
2019-04-07T02:39:54.803Z,30.20
2019-04-07T02:42:56.304Z,30.20
2019-04-07T02:46:13.766Z,30.20
2019-04-07T02:49:32.263Z,30.20
2019-04-07T02:52:43.179Z,30.20
2019-04-07T02:55:49.276Z,30.20
2019-04-07T02:58:59.700Z,30.20
2019-04-07T03:02:14.292Z,30.20
2019-04-07T03:05:33.107Z,30.20
2019-04-07T03:08:47.481Z,30.20
2019-04-07T03:11:46.577Z,30.20
2019-04-07T03:14:58.481Z,30.20
2019-04-07T03:18:06.973Z,30.20
2019-04-07T03:21:10.140Z,30.20
2019-04-07T03:24:15.708Z,30.20
2019-04-07T03:27:25.863Z,30.30
2019-04-07T03:30:41.859Z,30.30
2019-04-07T03:33:52.234Z,30.30
2019-04-07T03:37:19.117Z,30.30
2019-04-07T03:39:56.815Z,30.30
2019-04-07T03:43:11.684Z,30.30
2019-04-07T03:46:12.311Z,30.30
2019-04-07T03:49:23.487Z,30.30
2019-04-07T03:52:26.837Z,30.30
2019-04-07T03:55:38.438Z,30.30
2019-04-07T03:59:02.176Z,30.40
2019-04-07T04:02:22.164Z,30.40
2019-04-07T04:05:26.071Z,30.40
2019-04-07T04:08:28.777Z,30.40
2019-04-07T04:11:47.002Z,30.40
2019-04-07T04:14:45.466Z,30.40
2019-04-07T04:17:39.156Z,30.40
2019-04-07T04:20:32.289Z,30.40
2019-04-07T04:23:26.136Z,30.40
2019-04-07T04:26:18.686Z,30.40
2019-04-07T04:29:11.076Z,30.40
2019-04-07T04:32:03.984Z,30.40
2019-04-07T04:34:57.460Z,30.40
2019-04-07T04:37:53.420Z,30.50
2019-04-07T04:40:45.914Z,30.40
2019-04-07T04:43:39.288Z,30.50
2019-04-07T04:46:32.647Z,30.50
2019-04-07T04:49:26.800Z,30.50
2019-04-07T04:52:21.982Z,30.50
2019-04-07T04:55:15.357Z,30.50
2019-04-07T04:58:09.971Z,30.50
2019-04-07T05:01:04.485Z,30.50
2019-04-07T05:03:57.388Z,30.50
2019-04-07T05:06:50.434Z,30.50
2019-04-07T05:09:50.428Z,30.50
2019-04-07T05:12:39.164Z,30.50
2019-04-07T05:15:32.662Z,30.50
2019-04-07T05:18:26.799Z,30.50
2019-04-07T05:21:20.716Z,30.50
2019-04-07T05:24:13.465Z,30.50
2019-04-07T05:27:07.395Z,30.60
2019-04-07T05:30:01.203Z,30.60
2019-04-07T05:32:54.538Z,30.60
2019-04-07T05:35:48.318Z,30.60
2019-04-07T05:38:42.099Z,30.60
2019-04-07T05:41:36.443Z,30.60
2019-04-07T05:44:30.788Z,30.60
2019-04-07T05:47:25.399Z,30.60
2019-04-07T05:50:18.275Z,30.60
2019-04-07T05:53:14.684Z,30.60
2019-04-07T05:56:07.628Z,30.60
2019-04-07T05:59:00.582Z,30.60
2019-04-07T06:01:58.452Z,30.60
2019-04-07T06:04:49.256Z,30.60
2019-04-07T06:07:42.539Z,30.60
2019-04-07T06:10:35.898Z,30.60
2019-04-07T06:13:29.139Z,30.60
2019-04-07T06:16:22.578Z,30.60
2019-04-07T06:19:16.022Z,30.60
2019-04-07T06:22:11.069Z,30.70
2019-04-07T06:25:04.616Z,30.70
2019-04-07T06:28:02.324Z,30.70
2019-04-07T06:30:54.869Z,30.70
2019-04-07T06:33:47.902Z,30.70
2019-04-07T06:36:40.680Z,30.70
2019-04-07T06:39:34.028Z,30.70
2019-04-07T06:42:26.828Z,30.70
2019-04-07T06:45:24.464Z,30.70
2019-04-07T06:48:17.542Z,30.70
2019-04-07T06:51:29.300Z,30.70
2019-04-07T06:54:56.219Z,30.70
2019-04-07T06:58:01.983Z,30.70
2019-04-07T07:01:16.526Z,30.70
2019-04-07T07:04:30.091Z,30.70
2019-04-07T07:07:36.817Z,30.70
2019-04-07T07:10:45.635Z,30.70
2019-04-07T07:14:03.327Z,30.70
2019-04-07T07:17:14.959Z,30.70
2019-04-07T07:20:27.380Z,30.80
2019-04-07T07:23:29.349Z,30.80
2019-04-07T07:26:22.052Z,30.80
2019-04-07T07:29:16.232Z,30.80
2019-04-07T07:32:08.616Z,30.80
2019-04-07T07:35:02.945Z,30.80
2019-04-07T07:37:58.176Z,30.80
2019-04-07T07:40:50.305Z,30.80
2019-04-07T07:43:43.581Z,30.80
2019-04-07T07:46:36.673Z,30.80
2019-04-07T07:49:33.533Z,30.80
2019-04-07T07:52:24.241Z,30.80
2019-04-07T07:55:17.219Z,30.80
2019-04-07T07:58:09.632Z,30.80
2019-04-07T08:01:03.205Z,30.80
2019-04-07T08:03:56.854Z,30.80
2019-04-07T08:06:51.266Z,30.80
2019-04-07T08:09:44.473Z,30.80
2019-04-07T08:12:37.576Z,30.80
2019-04-07T08:15:32.262Z,30.80
2019-04-07T08:18:25.007Z,30.80
2019-04-07T08:21:19.909Z,30.80
2019-04-07T08:24:17.075Z,30.80
2019-04-07T08:27:08.805Z,30.80
2019-04-07T08:30:02.621Z,30.80
2019-04-07T08:32:58.589Z,30.90
2019-04-07T08:35:54.244Z,30.80
2019-04-07T08:38:46.636Z,30.80
2019-04-07T08:41:41.621Z,30.80
2019-04-07T08:44:35.452Z,30.80
2019-04-07T08:47:28.985Z,30.80
2019-04-07T08:50:22.729Z,30.80
2019-04-07T08:53:16.961Z,30.90
2019-04-07T08:56:09.907Z,30.90
2019-04-07T08:59:03.785Z,30.90
2019-04-07T09:01:58.042Z,30.90
2019-04-07T09:04:52.305Z,30.90
2019-04-07T09:07:46.118Z,30.90
2019-04-07T09:10:56.677Z,30.90
2019-04-07T09:13:54.747Z,30.90
2019-04-07T09:17:04.663Z,30.90
2019-04-07T09:20:10.889Z,30.90
2019-04-07T09:23:12.541Z,30.90
2019-04-07T09:26:12.089Z,30.90
2019-04-07T09:29:24.976Z,30.90
2019-04-07T09:32:28.929Z,30.90
2019-04-07T09:35:38.993Z,30.90
2019-04-07T09:38:57.041Z,30.90
2019-04-07T09:42:09.755Z,30.90
2019-04-07T09:45:11.563Z,30.90
2019-04-07T09:48:17.479Z,31.00
2019-04-07T09:51:26.903Z,31.00
2019-04-07T09:54:36.365Z,30.90
2019-04-07T09:57:41.004Z,30.90
2019-04-07T10:00:44.295Z,30.90
2019-04-07T10:03:56.946Z,30.90
2019-04-07T10:07:09.136Z,31.00
2019-04-07T10:10:14.525Z,30.90
2019-04-07T10:13:30.682Z,31.00
2019-04-07T10:16:43.395Z,31.00
2019-04-07T10:19:45.707Z,31.00
2019-04-07T10:22:59.742Z,31.00
2019-04-07T10:26:10.267Z,31.00
2019-04-07T10:29:09.824Z,31.00
2019-04-07T10:32:20.055Z,31.00
2019-04-07T10:35:30.644Z,31.00
2019-04-07T10:38:39.589Z,31.00
2019-04-07T10:41:56.591Z,31.00
2019-04-07T10:45:10.778Z,31.00
2019-04-07T10:48:28.608Z,31.00
2019-04-07T10:51:40.800Z,31.00
2019-04-07T10:54:42.285Z,31.00
2019-04-07T10:57:53.593Z,31.10
2019-04-07T11:01:08.956Z,31.00
2019-04-07T11:04:20.092Z,31.00
2019-04-07T11:07:25.889Z,31.00
2019-04-07T11:10:40.921Z,31.00
2019-04-07T11:13:43.534Z,31.10
2019-04-07T11:17:01.455Z,31.10
2019-04-07T11:20:11.622Z,31.10
2019-04-07T11:23:24.199Z,31.10
2019-04-07T11:26:40.309Z,31.10
2019-04-07T11:29:39.710Z,31.10
2019-04-07T11:32:40.248Z,31.10
2019-04-07T11:35:49.547Z,31.10
2019-04-07T11:39:04.058Z,31.10
2019-04-07T11:42:15.277Z,31.10
2019-04-07T11:45:16.500Z,31.10
2019-04-07T11:48:40.466Z,31.10
2019-04-07T11:52:01.605Z,31.10
2019-04-07T11:55:12.218Z,31.10
2019-04-07T11:58:30.857Z,31.20
2019-04-07T12:01:31.825Z,31.20
2019-04-07T12:04:31.632Z,31.10
2019-04-07T12:07:57.170Z,31.20
2019-04-07T12:11:14.184Z,31.20
2019-04-07T12:14:27.527Z,31.20
2019-04-07T12:17:46.665Z,31.20
2019-04-07T12:21:00.890Z,31.20
2019-04-07T12:24:06.116Z,31.20
2019-04-07T12:27:13.640Z,31.20
2019-04-07T12:30:17.615Z,31.20
2019-04-07T12:33:22.990Z,31.20
2019-04-07T12:36:34.355Z,31.20
2019-04-07T12:40:05.422Z,31.20
2019-04-07T12:43:23.191Z,31.20
2019-04-07T12:46:41.781Z,31.20
2019-04-07T12:50:05.179Z,31.20
2019-04-07T12:53:23.781Z,31.20
2019-04-07T12:56:31.523Z,31.30
2019-04-07T12:59:48.698Z,31.30
2019-04-07T13:02:57.299Z,31.30
2019-04-07T13:06:06.415Z,31.20
2019-04-07T13:09:20.379Z,31.30
2019-04-07T13:12:31.109Z,31.30
2019-04-07T13:15:45.535Z,31.30
2019-04-07T13:19:02.271Z,31.30
2019-04-07T13:22:15.065Z,31.30
2019-04-07T13:25:37.414Z,31.30
2019-04-07T13:28:43.390Z,31.30
2019-04-07T13:31:50.323Z,31.30
2019-04-07T13:34:55.542Z,31.30
2019-04-07T13:38:12.071Z,31.30
2019-04-07T13:41:36.685Z,31.30
2019-04-07T13:44:44.771Z,31.40
2019-04-07T13:48:01.507Z,31.30
2019-04-07T13:51:16.901Z,31.40
2019-04-07T13:54:32.633Z,31.40
2019-04-07T13:57:31.795Z,31.40
2019-04-07T14:00:42.936Z,31.40
2019-04-07T14:03:58.574Z,31.40
2019-04-07T14:07:02.464Z,31.40
2019-04-07T14:10:12.495Z,31.40
2019-04-07T14:13:23.165Z,31.40
2019-04-07T14:16:34.525Z,31.40
2019-04-07T14:19:44.436Z,31.40
2019-04-07T14:22:46.523Z,31.40
2019-04-07T14:25:57.984Z,31.40
2019-04-07T14:29:10.247Z,31.40
2019-04-07T14:32:37.386Z,31.40
2019-04-07T14:35:48.812Z,31.50
2019-04-07T14:39:00.323Z,31.40
2019-04-07T14:42:22.539Z,31.40
2019-04-07T14:45:23.209Z,31.40
2019-04-07T14:48:35.953Z,31.40
2019-04-07T14:51:50.215Z,31.40
2019-04-07T14:55:14.150Z,31.50
2019-04-07T14:58:32.407Z,31.50
2019-04-07T15:01:50.123Z,31.40
2019-04-07T15:04:53.091Z,31.50
2019-04-07T15:08:01.195Z,31.50
2019-04-07T15:10:58.242Z,31.50
2019-04-07T15:13:50.935Z,31.50
2019-04-07T15:16:46.772Z,31.50
2019-04-07T15:19:39.793Z,31.50
2019-04-07T15:22:34.614Z,31.50
2019-04-07T15:25:29.481Z,31.50
2019-04-07T15:28:22.659Z,31.50
2019-04-07T15:31:17.690Z,31.50
2019-04-07T15:34:11.666Z,31.50
2019-04-07T15:37:04.246Z,31.50
2019-04-07T15:40:00.714Z,31.50
2019-04-07T15:42:52.599Z,31.50
2019-04-07T15:45:45.614Z,31.50
2019-04-07T15:48:38.795Z,31.50
2019-04-07T15:51:34.168Z,31.50
2019-04-07T15:54:25.914Z,31.50
2019-04-07T15:57:21.692Z,31.50
2019-04-07T16:00:12.954Z,31.50
2019-04-07T16:03:05.762Z,31.50
2019-04-07T16:06:00.315Z,31.50
2019-04-07T16:08:57.312Z,31.50
2019-04-07T16:11:49.592Z,31.50
2019-04-07T16:14:46.486Z,31.60
2019-04-07T16:17:38.323Z,31.50
2019-04-07T16:20:36.173Z,31.50
2019-04-07T16:23:26.197Z,31.50
2019-04-07T16:26:19.745Z,31.50
2019-04-07T16:29:17.169Z,31.50
2019-04-07T16:32:09.296Z,31.60
2019-04-07T16:35:03.854Z,31.60
2019-04-07T16:37:58.404Z,31.60
2019-04-07T16:40:51.538Z,31.60
2019-04-07T16:43:45.711Z,31.60
2019-04-07T16:46:39.258Z,31.60
2019-04-07T16:49:32.659Z,31.60
2019-04-07T16:52:26.571Z,31.60
2019-04-07T16:55:55.601Z,31.60
2019-04-07T16:58:47.757Z,31.60
2019-04-07T17:01:40.279Z,31.60
2019-04-07T17:04:33.294Z,31.60
2019-04-07T17:07:25.715Z,31.60
2019-04-07T17:10:18.694Z,31.60
2019-04-07T17:13:18.725Z,31.70
2019-04-07T17:16:05.892Z,31.60
2019-04-07T17:18:58.768Z,31.70
2019-04-07T17:21:55.534Z,31.60
2019-04-07T17:24:48.250Z,31.60
2019-04-07T17:27:42.446Z,31.60
2019-04-07T17:30:35.395Z,31.60
2019-04-07T17:33:29.535Z,31.70
2019-04-07T17:36:23.016Z,31.60
2019-04-07T17:39:49.795Z,31.70
2019-04-07T17:42:42.117Z,31.60
2019-04-07T17:46:02.375Z,31.70
2019-04-07T17:49:08.686Z,31.60
2019-04-07T17:52:32.251Z,31.60
2019-04-07T17:55:51.164Z,31.70
2019-04-07T17:59:08.713Z,31.70
2019-04-07T18:02:24.804Z,31.70
2019-04-07T18:05:40.718Z,31.70
2019-04-07T18:08:50.761Z,31.70
2019-04-07T18:12:14.346Z,31.70
2019-04-07T18:15:38.046Z,31.70
2019-04-07T18:18:56.203Z,31.70
2019-04-07T18:22:03.890Z,31.70
2019-04-07T18:25:05.196Z,31.70
2019-04-07T18:28:30.512Z,31.70
2019-04-07T18:31:40.266Z,31.70
2019-04-07T18:34:58.451Z,31.70
2019-04-07T18:38:10.311Z,31.70
2019-04-07T18:41:18.560Z,31.70
2019-04-07T18:44:23.939Z,31.70
2019-04-07T18:47:41.642Z,31.70
2019-04-07T18:50:46.586Z,31.70
2019-04-07T18:53:48.626Z,31.70
2019-04-07T18:56:59.554Z,31.70
2019-04-07T19:00:31.641Z,31.70
2019-04-07T19:03:46.504Z,31.70
2019-04-07T19:06:49.966Z,31.70
2019-04-07T19:10:13.043Z,31.70
2019-04-07T19:13:26.718Z,31.70
2019-04-07T19:16:31.934Z,31.70
2019-04-07T19:19:46.185Z,31.70
2019-04-07T19:23:16.354Z,31.70
2019-04-07T19:26:20.670Z,31.70
2019-04-07T19:29:30.318Z,31.70
2019-04-07T19:32:44.774Z,31.70
2019-04-07T19:35:57.937Z,31.70
2019-04-07T19:39:06.989Z,31.70
2019-04-07T19:42:12.543Z,31.70
2019-04-07T19:45:23.664Z,31.70
2019-04-07T19:48:32.812Z,31.70
2019-04-07T19:51:36.305Z,31.70
2019-04-07T19:54:49.467Z,31.70
2019-04-07T19:57:48.853Z,31.70
2019-04-07T20:00:54.979Z,31.70
2019-04-07T20:04:02.712Z,31.70
2019-04-07T20:07:03.382Z,31.70
2019-04-07T20:10:21.524Z,31.70
2019-04-07T20:13:40.866Z,31.70
2019-04-07T20:16:57.786Z,31.70
2019-04-07T20:20:08.769Z,31.70
2019-04-07T20:23:12.098Z,31.70
2019-04-07T20:26:22.689Z,31.70
2019-04-07T20:29:35.317Z,31.70
2019-04-07T20:32:35.242Z,31.70
2019-04-07T20:35:45.258Z,31.70
2019-04-07T20:38:48.551Z,31.70
2019-04-07T20:41:59.686Z,31.70
2019-04-07T20:45:13.165Z,31.70
2019-04-07T20:48:17.075Z,31.70
2019-04-07T20:51:25.389Z,31.70
2019-04-07T20:54:44.339Z,31.70
2019-04-07T20:58:13.112Z,31.70
2019-04-07T21:01:18.710Z,31.70
2019-04-07T21:04:27.473Z,31.70
2019-04-07T21:07:41.507Z,31.70
2019-04-07T21:10:55.976Z,31.70
2019-04-07T21:14:05.449Z,31.70
2019-04-07T21:17:11.037Z,31.70
2019-04-07T21:20:12.880Z,31.70
2019-04-07T21:23:17.267Z,31.70
2019-04-07T21:26:27.427Z,31.70
2019-04-07T21:29:41.348Z,31.70
2019-04-07T21:32:44.292Z,31.70
2019-04-07T21:35:56.031Z,31.80
2019-04-07T21:39:05.760Z,31.70
2019-04-07T21:42:25.878Z,31.70
2019-04-07T21:45:41.442Z,31.70
2019-04-07T21:48:48.330Z,31.80
2019-04-07T21:52:05.546Z,31.70
2019-04-07T21:55:26.458Z,31.70
2019-04-07T21:58:38.641Z,31.80
2019-04-07T22:01:55.951Z,31.70
2019-04-07T22:05:06.026Z,31.80
2019-04-07T22:08:10.887Z,31.70
2019-04-07T22:11:00.218Z,31.70
2019-04-07T22:13:53.373Z,31.70
2019-04-07T22:16:45.782Z,31.70
2019-04-07T22:19:43.001Z,31.70
2019-04-07T22:22:33.224Z,31.80
2019-04-07T22:25:32.544Z,31.70
2019-04-07T22:28:28.079Z,31.80
2019-04-07T22:31:25.016Z,31.70
2019-04-07T22:34:18.521Z,31.70
2019-04-07T22:37:12.164Z,31.70
2019-04-07T22:40:05.150Z,31.70
2019-04-07T22:42:58.389Z,31.80
2019-04-07T22:45:59.052Z,31.70
2019-04-07T22:48:45.887Z,31.70
2019-04-07T22:51:42.699Z,31.80
2019-04-07T22:54:32.838Z,31.70
2019-04-07T22:57:25.962Z,31.80
2019-04-07T23:00:22.488Z,31.70
2019-04-07T23:03:16.015Z,31.80
2019-04-07T23:06:09.398Z,31.70
2019-04-07T23:09:02.304Z,31.80
2019-04-07T23:11:56.617Z,31.70
2019-04-07T23:14:49.716Z,31.80
2019-04-07T23:17:42.954Z,31.80
2019-04-07T23:20:37.502Z,31.80
2019-04-07T23:23:31.012Z,31.80
2019-04-07T23:26:24.293Z,31.80
2019-04-07T23:29:17.872Z,31.70
2019-04-07T23:32:11.685Z,31.70
2019-04-07T23:35:06.183Z,31.70
2019-04-07T23:37:59.448Z,31.70
2019-04-07T23:40:51.787Z,31.70
2019-04-07T23:43:44.169Z,31.70
2019-04-07T23:46:36.610Z,31.70
2019-04-07T23:49:31.718Z,31.80
2019-04-07T23:52:25.134Z,31.70
2019-04-07T23:55:18.160Z,31.70
2019-04-07T23:58:11.109Z,31.70
